Time;durP1;ratioP1;P1;durP2;ratioP2;P2;SDS_P1;SDS_P2;PMS_P1;PMS_P2;Temp;Humidity;BMP_temperature;BMP_pressure;BME280_temperature;BME280_humidity;BME280_pressure;Samples;Min_cycle;Max_cycle;Signal;HPM_P1;HPM_P2
2021/10/06 00:00:00;;;;;;;10.10;4.90;;;;;;;9.61;66.29;94309.50;5073127;28;20412;-49
2021/10/06 00:02:26;;;;;;;11.43;5.00;;;;;;;9.31;67.42;94262.78;5072579;28;20043;-50
2021/10/06 00:04:51;;;;;;;7.07;5.15;;;;;;;9.53;67.00;94290.03;5072988;28;20110;-50
2021/10/06 00:07:17;;;;;;;9.20;4.95;;;;;;;9.27;67.51;94240.25;5072654;28;20090;-50
2021/10/06 00:09:42;;;;;;;8.45;5.22;;;;;;;9.58;67.29;94293.97;5072887;28;20412;-50
2021/10/06 00:12:08;;;;;;;10.48;4.50;;;;;;;9.61;67.17;94281.91;5072812;28;20388;-50
2021/10/06 00:14:33;;;;;;;7.63;4.47;;;;;;;9.35;67.22;94234.91;5072560;28;20101;-49
2021/10/06 00:16:58;;;;;;;8.57;4.97;;;;;;;9.34;67.57;94255.47;5072509;28;20028;-50
2021/10/06 00:19:24;;;;;;;7.00;4.50;;;;;;;9.36;67.67;94252.91;5072106;28;20499;-50
2021/10/06 00:21:50;;;;;;;8.90;5.00;;;;;;;9.41;67.23;94269.41;5072337;28;20052;-50
2021/10/06 00:24:15;;;;;;;8.40;4.63;;;;;;;9.24;67.21;94251.59;5072631;28;20131;-51
2021/10/06 00:26:40;;;;;;;15.48;4.93;;;;;;;9.29;67.16;94259.06;5072159;28;20021;-50
2021/10/06 00:29:08;;;;;;;8.68;4.55;;;;;;;9.07;67.29;94229.78;5072088;28;20032;-52
2021/10/06 00:31:33;;;;;;;5.28;4.47;;;;;;;9.19;67.24;94261.41;5072427;28;20058;-51
2021/10/06 00:33:59;;;;;;;10.50;4.97;;;;;;;9.15;67.45;94267.22;5072344;28;20480;-51
2021/10/06 00:36:24;;;;;;;7.10;5.55;;;;;;;9.11;67.59;94263.28;5072088;28;20036;-49
2021/10/06 00:38:50;;;;;;;8.68;5.03;;;;;;;9.07;67.69;94269.06;5072050;28;20024;-50
2021/10/06 00:41:15;;;;;;;8.25;5.80;;;;;;;9.01;68.25;94264.88;5071990;28;20020;-53
2021/10/06 00:43:41;;;;;;;9.05;5.72;;;;;;;8.89;68.37;94258.78;5071908;28;20031;-50
2021/10/06 00:46:06;;;;;;;11.00;5.43;;;;;;;8.87;68.54;94268.81;5072093;28;20461;-49
2021/10/06 00:48:32;;;;;;;10.32;6.60;;;;;;;8.79;69.19;94276.16;5072148;28;20027;-49
2021/10/06 00:50:57;;;;;;;8.32;5.07;;;;;;;8.73;69.44;94276.22;5071760;28;20048;-50
2021/10/06 00:53:26;;;;;;;7.32;5.13;;;;;;;8.70;69.44;94271.75;5071006;28;20025;-50
2021/10/06 00:55:52;;;;;;;;;;;;;;;8.74;69.39;94261.19;5072160;28;20052;-50
2021/10/06 00:58:17;;;;;;;8.10;4.78;;;;;;;8.70;69.67;94268.25;5071889;28;20414;-49
2021/10/06 01:00:43;;;;;;;11.70;5.03;;;;;;;8.63;69.60;94260.56;5071812;28;20032;-52
2021/10/06 01:03:08;;;;;;;6.80;4.25;;;;;;;8.64;70.09;94251.78;5071437;28;20502;-51
2021/10/06 01:05:36;;;;;;;10.32;5.03;;;;;;;8.43;69.74;94228.75;5071530;28;20035;-52
2021/10/06 01:08:04;;;;;;;6.65;4.35;;;;;;;8.57;70.14;94248.88;5071585;28;20028;-52
2021/10/06 01:10:30;;;;;;;6.88;4.88;;;;;;;8.54;69.74;94250.66;5071649;28;20107;-50
2021/10/06 01:12:55;;;;;;;8.20;4.63;;;;;;;8.48;69.58;94243.72;5071335;28;20054;-52
2021/10/06 01:15:22;;;;;;;9.90;5.35;;;;;;;8.54;69.57;94258.16;5071226;28;20021;-50
2021/10/06 01:17:47;;;;;;;7.65;5.00;;;;;;;8.47;69.86;94264.97;5071480;28;20043;-50
2021/10/06 01:20:13;;;;;;;6.80;4.90;;;;;;;8.21;70.16;94232.41;5071078;28;20404;-50
2021/10/06 01:22:39;;;;;;;7.93;5.05;;;;;;;8.31;70.09;94263.13;5070899;28;20130;-50
2021/10/06 01:25:06;;;;;;;12.32;5.82;;;;;;;8.34;70.23;94264.84;5071125;28;20087;-50
2021/10/06 01:27:35;;;;;;;7.25;5.30;;;;;;;8.33;70.43;94266.88;5070892;28;20056;-50
2021/10/06 01:30:01;;;;;;;8.50;5.45;;;;;;;8.30;70.20;94267.88;5069861;28;20035;-51
2021/10/06 01:32:26;;;;;;;7.80;4.70;;;;;;;8.29;70.21;94260.88;5070619;28;20032;-50
2021/10/06 01:34:57;;;;;;;9.63;5.32;;;;;;;8.28;68.82;94258.66;5070384;28;20097;-50
2021/10/06 01:37:23;;;;;;;8.88;6.82;;;;;;;8.24;67.10;94258.16;5070881;28;20020;-50
2021/10/06 01:39:49;;;;;;;8.85;5.70;;;;;;;8.04;66.96;94244.81;5070646;28;20032;-50
2021/10/06 01:42:14;;;;;;;10.45;6.20;;;;;;;7.76;67.48;94236.06;5068309;28;20082;-50
2021/10/06 01:44:39;;;;;;;8.48;5.88;;;;;;;7.80;67.80;94261.25;5066434;28;20420;-50
2021/10/06 01:47:05;;;;;;;10.68;5.10;;;;;;;7.66;68.84;94254.88;5050990;28;20481;-49
2021/10/06 01:49:30;;;;;;;6.68;4.80;;;;;;;7.54;69.21;94242.47;5060943;28;20098;-49
2021/10/06 01:51:56;;;;;;;7.63;4.82;;;;;;;7.22;69.92;94197.47;5070870;28;20024;-50
2021/10/06 01:54:21;;;;;;;8.52;6.15;;;;;;;7.36;69.77;94227.34;5070900;28;20455;-50
2021/10/06 01:56:46;;;;;;;6.65;4.90;;;;;;;7.51;69.87;94232.50;5055129;28;20028;-49
2021/10/06 01:59:12;;;;;;;7.18;4.70;;;;;;;7.51;69.84;94246.97;5050823;28;20021;-52
2021/10/06 02:01:37;;;;;;;6.75;4.85;;;;;;;7.52;69.21;94251.22;5053723;28;20538;-51
2021/10/06 02:04:03;;;;;;;10.73;5.35;;;;;;;7.32;68.99;94254.31;5070351;28;20054;-50
2021/10/06 02:06:28;;;;;;;6.03;4.10;;;;;;;7.31;69.32;94260.34;5069517;28;20035;-50
2021/10/06 02:08:54;;;;;;;8.00;5.80;;;;;;;7.21;70.21;94253.66;5070682;28;20408;-49
2021/10/06 02:11:19;;;;;;;11.88;6.57;;;;;;;7.18;70.75;94244.44;5070732;28;20032;-50
2021/10/06 02:13:45;;;;;;;12.75;6.60;;;;;;;7.12;70.64;94251.22;5070345;28;20017;-52
2021/10/06 02:16:10;;;;;;;8.20;6.47;;;;;;;7.12;70.95;94260.19;5070585;28;20028;-50
2021/10/06 02:18:36;;;;;;;9.80;5.53;;;;;;;7.17;70.99;94258.69;5070606;28;20020;-51
2021/10/06 02:21:01;;;;;;;10.55;6.43;;;;;;;7.19;70.34;94253.44;5069946;28;20484;-50
2021/10/06 02:23:27;;;;;;;7.95;4.93;;;;;;;7.11;70.18;94242.22;5070232;28;20032;-50
2021/10/06 02:25:53;;;;;;;7.68;5.93;;;;;;;7.13;70.36;94252.69;5070552;28;20044;-50
2021/10/06 02:28:18;;;;;;;10.30;5.57;;;;;;;7.06;70.56;94250.50;5070076;28;20021;-50
2021/10/06 02:30:43;;;;;;;9.30;4.90;;;;;;;6.89;70.28;94225.84;5070228;28;20142;-50
2021/10/06 02:33:09;;;;;;;7.93;5.28;;;;;;;7.05;69.81;94249.75;5070118;28;20031;-51
2021/10/06 02:35:35;;;;;;;8.88;5.85;;;;;;;7.00;69.73;94242.25;5069932;28;20064;-52
2021/10/06 02:38:00;;;;;;;10.27;5.72;;;;;;;6.97;69.82;94232.31;5070423;28;20017;-50
2021/10/06 02:40:26;;;;;;;10.85;5.45;;;;;;;7.01;69.29;94234.78;5070090;28;20036;-50
2021/10/06 02:42:51;;;;;;;8.82;5.07;;;;;;;6.91;68.94;94242.56;5070374;28;20032;-50
2021/10/06 02:45:18;;;;;;;5.68;4.53;;;;;;;6.79;68.67;94243.84;5070295;28;20020;-54
2021/10/06 02:47:46;;;;;;;11.07;8.38;;;;;;;6.59;68.74;94228.47;5070259;28;20021;-53
2021/10/06 02:50:14;;;;;;;9.93;6.35;;;;;;;6.65;69.50;94245.66;5070301;28;20043;-52
2021/10/06 02:52:40;;;;;;;9.25;6.30;;;;;;;6.63;69.75;94237.19;5070303;28;20025;-52
2021/10/06 02:55:06;;;;;;;10.82;6.97;;;;;;;6.59;70.40;94233.19;5070218;28;20050;-52
2021/10/06 02:57:33;;;;;;;10.88;6.25;;;;;;;6.63;70.20;94239.91;5070235;28;20074;-54
2021/10/06 02:59:58;;;;;;;11.20;6.53;;;;;;;6.57;70.16;94232.94;5069901;28;20078;-51
2021/10/06 03:02:24;;;;;;;9.15;6.90;;;;;;;6.38;70.17;94223.78;5069880;28;20020;-53
2021/10/06 03:04:49;;;;;;;12.73;8.32;;;;;;;6.36;70.56;94223.53;5069781;28;20025;-50
2021/10/06 03:07:14;;;;;;;9.05;7.43;;;;;;;6.28;71.44;94228.78;5070046;28;20029;-53
2021/10/06 03:09:40;;;;;;;17.23;9.35;;;;;;;6.37;71.22;94238.72;5068925;28;20024;-52
2021/10/06 03:12:05;;;;;;;9.60;7.22;;;;;;;6.37;70.45;94239.50;5068731;28;20086;-52
2021/10/06 03:14:31;;;;;;;14.35;8.85;;;;;;;6.40;70.70;94243.22;5070061;28;20024;-51
2021/10/06 03:16:56;;;;;;;14.13;9.15;;;;;;;6.41;70.84;94239.25;5072478;28;20052;-51
2021/10/06 03:19:22;;;;;;;13.35;9.75;;;;;;;6.30;70.56;94233.78;5073461;28;20009;-51
2021/10/06 03:21:47;;;;;;;13.93;9.95;;;;;;;6.37;70.50;94244.22;5073182;28;20052;-53
2021/10/06 03:24:12;;;;;;;21.77;12.82;;;;;;;6.21;70.48;94234.81;5073447;28;20077;-51
2021/10/06 03:26:38;;;;;;;17.33;11.25;;;;;;;6.28;70.63;94239.03;5073430;28;20078;-51
2021/10/06 03:29:03;;;;;;;19.67;10.38;;;;;;;6.23;71.25;94237.03;5073555;28;20028;-52
2021/10/06 03:31:29;;;;;;;16.02;8.70;;;;;;;6.30;71.52;94248.25;5073122;28;20027;-51
2021/10/06 03:33:57;;;;;;;12.18;8.23;;;;;;;6.40;71.12;94249.47;5073482;28;20027;-51
2021/10/06 03:36:22;;;;;;;15.13;7.97;;;;;;;6.44;70.47;94243.72;5073468;28;20046;-52
2021/10/06 03:38:48;;;;;;;11.80;8.55;;;;;;;6.40;69.03;94238.50;5073386;28;20532;-51
2021/10/06 03:41:13;;;;;;;13.73;8.50;;;;;;;6.07;68.35;94228.34;5073425;28;20012;-51
2021/10/06 03:43:39;;;;;;;20.38;10.93;;;;;;;6.05;68.78;94241.03;5072993;28;20385;-52
2021/10/06 03:46:04;;;;;;;12.48;8.90;;;;;;;6.01;69.73;94230.34;5073242;28;20029;-51
2021/10/06 03:48:30;;;;;;;20.13;10.93;;;;;;;5.96;69.62;94233.81;5073181;28;20016;-53
2021/10/06 03:50:56;;;;;;;18.15;10.82;;;;;;;5.96;69.89;94225.59;5073165;28;20024;-51
2021/10/06 03:53:21;;;;;;;16.70;10.82;;;;;;;5.92;70.03;94225.13;5073162;28;20024;-52
2021/10/06 03:55:47;;;;;;;17.05;9.85;;;;;;;5.89;69.45;94222.63;5073162;28;20059;-51
2021/10/06 03:58:12;;;;;;;22.38;10.82;;;;;;;5.94;69.62;94230.84;5073119;28;20670;-53
2021/10/06 04:00:38;;;;;;;19.10;8.80;;;;;;;5.84;69.98;94232.34;5073030;28;20074;-51
2021/10/06 04:03:10;;;;;;;19.45;10.90;;;;;;;5.84;70.13;94226.13;5072652;28;20017;-53
2021/10/06 04:05:37;;;;;;;14.38;10.45;;;;;;;5.68;70.23;94210.38;5072954;28;20024;-52
2021/10/06 04:08:03;;;;;;;13.52;10.52;;;;;;;5.69;70.38;94207.16;5072579;28;20024;-51
2021/10/06 04:10:29;;;;;;;13.48;9.88;;;;;;;5.42;70.07;94171.53;5072888;28;20028;-50
2021/10/06 04:12:55;;;;;;;14.43;10.18;;;;;;;5.71;70.51;94223.84;5072508;28;20504;-50
2021/10/06 04:15:21;;;;;;;24.35;11.63;;;;;;;5.71;70.22;94220.38;5072583;28;20059;-52
2021/10/06 04:17:47;;;;;;;28.38;14.25;;;;;;;5.69;69.89;94215.38;5072682;28;20020;-50
2021/10/06 04:20:13;;;;;;;17.05;10.80;;;;;;;5.66;70.05;94208.16;5072331;28;20016;-51
2021/10/06 04:22:38;;;;;;;21.27;11.88;;;;;;;5.66;70.06;94207.41;5072201;28;20048;-51
2021/10/06 04:25:04;;;;;;;40.13;14.18;;;;;;;5.64;70.35;94196.94;5072578;28;20028;-50
2021/10/06 04:27:29;;;;;;;20.58;13.27;;;;;;;5.62;70.87;94191.22;5071049;28;20079;-50
2021/10/06 04:29:55;;;;;;;25.45;12.80;;;;;;;5.61;70.91;94178.75;5067281;28;20039;-51
2021/10/06 04:32:20;;;;;;;14.38;9.32;;;;;;;5.63;69.20;94176.28;5053584;28;20025;-55
2021/10/06 04:34:46;;;;;;;15.07;9.60;;;;;;;5.58;68.80;94179.03;5050483;28;20020;-51
2021/10/06 04:37:11;;;;;;;16.83;9.27;;;;;;;5.30;69.34;94179.03;5051881;28;20021;-50
2021/10/06 04:39:37;;;;;;;16.42;9.40;;;;;;;5.32;69.54;94187.50;5052306;28;20025;-53
2021/10/06 04:42:02;;;;;;;20.27;8.13;;;;;;;5.13;70.24;94189.22;5051764;28;20557;-51
2021/10/06 04:44:28;;;;;;;10.98;7.50;;;;;;;5.11;71.36;94197.91;5050672;28;20028;-50
2021/10/06 04:46:53;;;;;;;16.33;9.65;;;;;;;5.13;72.54;94197.44;5050419;28;20029;-52
2021/10/06 04:49:19;;;;;;;16.40;9.52;;;;;;;5.15;73.36;94192.94;5050533;28;20071;-51
2021/10/06 04:51:44;;;;;;;13.80;8.95;;;;;;;5.29;73.73;94191.22;5050315;28;20074;-52
2021/10/06 04:54:10;;;;;;;17.98;10.95;;;;;;;5.35;73.13;94189.22;5050462;28;20032;-51
2021/10/06 04:56:35;;;;;;;16.27;10.90;;;;;;;5.37;72.58;94190.22;5050430;28;20027;-53
2021/10/06 04:59:01;;;;;;;16.02;10.32;;;;;;;5.49;72.27;94187.50;5051526;28;20020;-51
2021/10/06 05:01:26;;;;;;;20.58;10.82;;;;;;;5.48;72.74;94189.47;5051895;28;20067;-51
2021/10/06 05:03:52;;;;;;;13.85;9.68;;;;;;;5.46;72.11;94202.91;5051842;28;20400;-51
2021/10/06 05:06:17;;;;;;;15.30;10.40;;;;;;;5.52;72.39;94198.22;5051581;28;20021;-51
2021/10/06 05:08:43;;;;;;;16.65;9.88;;;;;;;5.54;71.64;94203.19;5051728;28;20470;-51
2021/10/06 05:11:09;;;;;;;19.48;10.18;;;;;;;5.68;71.78;94205.66;5051663;28;20272;-51
2021/10/06 05:13:34;;;;;;;24.67;11.43;;;;;;;5.67;71.39;94206.94;5051441;28;20056;-51
2021/10/06 05:16:00;;;;;;;17.08;10.70;;;;;;;5.76;70.80;94203.91;5051547;28;20028;-50
2021/10/06 05:18:25;;;;;;;19.02;12.95;;;;;;;5.78;70.45;94203.44;5051298;28;20071;-52
2021/10/06 05:20:51;;;;;;;23.67;11.27;;;;;;;5.78;71.37;94206.16;5068685;28;20424;-51
2021/10/06 05:23:16;;;;;;;17.17;12.07;;;;;;;5.89;71.65;94206.91;5070832;28;20048;-53
2021/10/06 05:25:42;;;;;;;17.25;12.40;;;;;;;5.97;72.48;94213.41;5071077;28;20040;-51
2021/10/06 05:28:07;;;;;;;21.25;11.43;;;;;;;6.03;72.87;94199.69;5070869;28;20031;-51
2021/10/06 05:30:33;;;;;;;15.88;10.68;;;;;;;6.31;72.00;94216.81;5071298;28;20024;-51
2021/10/06 05:32:58;;;;;;;18.48;13.00;;;;;;;6.40;70.88;94213.06;5070920;28;20121;-51
2021/10/06 05:35:24;;;;;;;40.22;16.00;;;;;;;6.46;71.15;94219.28;5071197;28;20021;-51
2021/10/06 05:37:49;;;;;;;15.90;10.68;;;;;;;6.57;70.29;94213.75;5070737;28;20047;-53
2021/10/06 05:40:16;;;;;;;20.65;10.77;;;;;;;6.70;70.14;94220.19;5070566;28;20021;-52
2021/10/06 05:42:42;;;;;;;24.33;13.65;;;;;;;6.74;70.56;94222.66;5070756;28;20385;-51
2021/10/06 05:45:08;;;;;;;34.63;19.90;;;;;;;6.85;70.29;94219.88;5070948;28;20035;-51
2021/10/06 05:47:33;;;;;;;28.92;17.45;;;;;;;6.99;70.95;94220.81;5070692;28;20522;-51
2021/10/06 05:50:00;;;;;;;27.27;16.13;;;;;;;7.16;70.13;94226.97;5070715;28;20052;-51
2021/10/06 05:52:25;;;;;;;20.60;12.30;;;;;;;7.33;70.35;94222.88;5070652;28;20074;-51
2021/10/06 05:54:51;;;;;;;20.65;13.45;;;;;;;7.45;70.92;94221.53;5070705;28;20020;-51
2021/10/06 05:57:16;;;;;;;15.70;10.88;;;;;;;7.53;71.24;94208.75;5069074;28;20027;-51
2021/10/06 05:59:42;;;;;;;19.88;11.02;;;;;;;7.66;71.14;94208.16;5070885;28;20025;-50
2021/10/06 06:02:07;;;;;;;11.95;9.02;;;;;;;7.76;71.38;94203.81;5070472;28;20515;-54
2021/10/06 06:04:33;;;;;;;20.75;10.25;;;;;;;7.93;71.10;94200.94;5070773;28;20028;-50
2021/10/06 06:06:58;;;;;;;12.25;8.38;;;;;;;8.13;71.20;94193.00;5070428;28;20020;-51
2021/10/06 06:09:24;;;;;;;11.40;7.78;;;;;;;8.39;70.96;94181.50;5070376;28;20039;-50
2021/10/06 06:11:50;;;;;;;14.75;8.18;;;;;;;8.91;69.65;94183.91;5070351;28;20028;-51
2021/10/06 06:14:16;;;;;;;9.07;7.53;;;;;;;9.40;68.29;94178.97;5070674;28;20073;-51
2021/10/06 06:16:41;;;;;;;15.18;10.25;;;;;;;9.51;67.44;94181.53;5070314;28;20028;-52
2021/10/06 06:19:07;;;;;;;40.67;13.02;;;;;;;9.81;66.36;94179.34;5070157;28;20016;-50
2021/10/06 06:21:32;;;;;;;23.00;12.77;;;;;;;10.52;63.98;94185.66;5070347;28;20032;-51
2021/10/06 06:23:58;;;;;;;23.88;13.93;;;;;;;11.16;62.74;94190.88;5069417;28;20020;-50
2021/10/06 06:26:23;;;;;;;15.27;11.40;;;;;;;12.06;59.54;94182.81;5070294;28;20017;-51
2021/10/06 06:28:49;;;;;;;24.20;8.77;;;;;;;13.00;57.04;94187.88;5070344;28;20054;-50
2021/10/06 06:31:17;;;;;;;17.27;7.40;;;;;;;14.04;54.01;94180.44;5070469;28;20021;-52
2021/10/06 06:33:43;;;;;;;11.95;6.82;;;;;;;14.80;51.79;94176.38;5070151;28;20033;-52
2021/10/06 06:36:09;;;;;;;7.80;6.35;;;;;;;15.13;50.74;94175.19;5070175;28;20166;-51
2021/10/06 06:38:35;;;;;;;15.60;6.25;;;;;;;15.13;49.89;94152.94;5070199;28;20032;-51
2021/10/06 06:41:00;;;;;;;13.57;7.07;;;;;;;15.34;49.94;94174.91;5070336;28;20040;-51
2021/10/06 06:43:26;;;;;;;12.40;6.60;;;;;;;15.62;48.67;94173.88;5070092;28;20103;-51
2021/10/06 06:45:51;;;;;;;9.70;6.70;;;;;;;16.03;47.20;94175.31;5070149;28;20047;-51
2021/10/06 06:48:16;;;;;;;9.05;6.63;;;;;;;16.14;47.52;94174.88;5070196;28;20024;-54
2021/10/06 06:50:42;;;;;;;7.47;5.70;;;;;;;15.90;47.40;94179.09;5072337;28;20028;-50
2021/10/06 06:53:08;;;;;;;8.60;5.57;;;;;;;15.67;48.14;94172.94;5074312;28;20024;-51
2021/10/06 06:55:33;;;;;;;13.82;5.45;;;;;;;16.24;46.37;94159.03;5074309;28;20100;-51
2021/10/06 06:57:59;;;;;;;7.68;6.10;;;;;;;17.31;45.04;94182.56;5074174;28;20017;-52
2021/10/06 07:00:24;;;;;;;7.32;5.40;;;;;;;17.99;43.72;94171.28;5073980;28;20585;-51
2021/10/06 07:02:49;;;;;;;7.57;5.30;;;;;;;17.94;43.16;94165.94;5072968;28;20442;-52
2021/10/06 07:05:15;;;;;;;7.05;6.30;;;;;;;16.89;44.32;94176.31;5073789;28;20028;-50
2021/10/06 07:07:41;;;;;;;10.32;6.22;;;;;;;16.65;45.40;94177.84;5073979;28;20103;-51
2021/10/06 07:10:07;;;;;;;10.45;6.53;;;;;;;15.06;49.09;94180.75;5074006;28;20024;-51
2021/10/06 07:12:32;;;;;;;14.48;9.85;;;;;;;14.62;50.87;94185.13;5073629;28;20032;-52
2021/10/06 07:14:58;;;;;;;12.00;7.38;;;;;;;13.88;52.30;94179.69;5073928;28;20025;-51
2021/10/06 07:17:23;;;;;;;11.43;9.02;;;;;;;13.48;53.93;94198.84;5073491;28;20542;-50
2021/10/06 07:19:49;;;;;;;10.52;8.60;;;;;;;13.34;54.60;94200.25;5073086;28;20032;-52
2021/10/06 07:22:18;;;;;;;13.18;7.90;;;;;;;13.01;54.45;94181.03;5073463;28;20059;-51
2021/10/06 07:24:44;;;;;;;34.50;9.98;;;;;;;13.16;55.30;94197.78;5073513;28;20500;-51
2021/10/06 07:27:10;;;;;;;14.85;9.50;;;;;;;12.95;55.64;94206.13;5073719;28;20024;-51
2021/10/06 07:29:37;;;;;;;12.63;7.75;;;;;;;12.67;56.93;94200.59;5073552;28;20059;-53
2021/10/06 07:32:03;;;;;;;10.80;8.45;;;;;;;12.70;56.44;94199.53;5073264;28;20024;-51
2021/10/06 07:34:28;;;;;;;11.35;8.45;;;;;;;12.30;57.88;94201.81;5073190;28;20087;-54
2021/10/06 07:36:54;;;;;;;12.98;8.70;;;;;;;12.58;57.29;94199.06;5073361;28;20028;-51
2021/10/06 07:39:19;;;;;;;17.60;13.45;;;;;;;12.61;56.55;94198.00;5073495;28;20399;-53
2021/10/06 07:41:45;;;;;;;19.38;10.95;;;;;;;12.10;57.25;94156.28;5073441;28;20059;-50
2021/10/06 07:44:10;;;;;;;11.48;7.45;;;;;;;12.55;57.15;94204.97;5073097;28;20506;-51
2021/10/06 07:46:36;;;;;;;18.30;10.60;;;;;;;12.74;57.59;94197.16;5073056;28;20036;-52
2021/10/06 07:49:02;;;;;;;13.50;8.70;;;;;;;12.59;57.53;94211.66;5072848;28;20024;-50
2021/10/06 07:51:27;;;;;;;21.20;10.07;;;;;;;12.83;57.89;94191.88;5072963;28;20112;-53
2021/10/06 07:53:53;;;;;;;13.60;9.10;;;;;;;13.01;56.44;94192.13;5073183;28;20024;-54
2021/10/06 07:56:20;;;;;;;9.70;7.38;;;;;;;13.04;55.75;94188.28;5073230;28;20020;-51
2021/10/06 07:58:46;;;;;;;11.35;7.75;;;;;;;12.89;55.48;94194.47;5073082;28;20091;-51
2021/10/06 08:01:12;;;;;;;10.07;8.90;;;;;;;13.16;56.46;94200.56;5072284;28;20545;-52
2021/10/06 08:03:37;;;;;;;10.23;6.80;;;;;;;13.17;53.87;94200.00;5072514;28;20066;-52
2021/10/06 08:06:03;;;;;;;8.88;7.93;;;;;;;12.99;55.08;94206.56;5072921;28;20127;-53
2021/10/06 08:08:28;;;;;;;7.45;6.32;;;;;;;12.58;55.00;94201.84;5055091;28;20028;-51
2021/10/06 08:10:58;;;;;;;16.02;9.82;;;;;;;12.18;56.45;94209.69;5072542;28;20416;-53
2021/10/06 08:13:24;;;;;;;10.50;8.07;;;;;;;12.22;56.45;94219.66;5072491;28;20107;-54
2021/10/06 08:15:51;;;;;;;10.48;8.57;;;;;;;12.28;55.95;94215.47;5072749;28;20056;-51
2021/10/06 08:18:17;;;;;;;15.23;9.30;;;;;;;12.48;56.25;94211.19;5072453;28;20021;-53
2021/10/06 08:20:50;;;;;;;15.13;10.90;;;;;;;12.54;56.24;94211.81;5072384;28;20085;-51
2021/10/06 08:23:17;;;;;;;20.13;12.70;;;;;;;12.66;56.57;94208.19;5072311;28;20045;-52
2021/10/06 08:25:43;;;;;;;10.82;9.40;;;;;;;12.78;56.03;94225.25;5072490;28;20035;-49
2021/10/06 08:28:09;;;;;;;13.75;8.63;;;;;;;12.81;55.36;94221.41;5072211;28;20036;-50
2021/10/06 08:30:34;;;;;;;17.38;8.73;;;;;;;12.53;55.57;94199.22;5072549;28;20032;-53
2021/10/06 08:33:00;;;;;;;13.88;9.15;;;;;;;12.75;55.39;94224.34;5072166;28;20017;-52
2021/10/06 08:35:25;;;;;;;11.10;8.68;;;;;;;13.00;54.89;94215.59;5072485;28;20028;-52
2021/10/06 08:37:51;;;;;;;12.95;10.25;;;;;;;12.97;54.82;94184.19;5072314;28;20021;-50
2021/10/06 08:40:16;;;;;;;13.50;8.75;;;;;;;13.32;54.20;94213.94;5072361;28;20453;-51
2021/10/06 08:42:43;;;;;;;11.18;10.02;;;;;;;13.52;54.42;94226.22;5072246;28;20500;-51
2021/10/06 08:45:09;;;;;;;11.15;8.85;;;;;;;13.36;53.02;94222.63;5071982;28;20496;-53
2021/10/06 08:47:39;;;;;;;11.05;8.07;;;;;;;13.34;52.78;94222.44;5071850;28;20058;-50
2021/10/06 08:50:07;;;;;;;12.75;10.13;;;;;;;13.32;54.15;94227.81;5071876;28;20035;-50
2021/10/06 08:52:32;;;;;;;10.05;8.38;;;;;;;13.43;52.94;94226.72;5071791;28;20044;-50
2021/10/06 08:54:58;;;;;;;14.70;10.52;;;;;;;13.39;54.18;94232.66;5071971;28;20025;-51
2021/10/06 08:57:23;;;;;;;18.58;9.93;;;;;;;13.50;55.10;94226.78;5072071;28;20096;-51
2021/10/06 08:59:49;;;;;;;21.35;11.95;;;;;;;13.45;55.36;94224.16;5071861;28;20039;-52
2021/10/06 09:02:15;;;;;;;18.70;13.88;;;;;;;13.43;55.90;94230.25;5071587;28;20032;-53
2021/10/06 09:04:42;;;;;;;13.80;11.50;;;;;;;13.21;55.94;94230.16;5071515;28;20024;-51
2021/10/06 09:07:08;;;;;;;13.07;10.30;;;;;;;12.86;57.02;94224.00;5070339;28;20024;-51
2021/10/06 09:09:36;;;;;;;20.80;9.80;;;;;;;12.54;57.71;94220.84;5071247;28;20056;-53
2021/10/06 09:12:07;;;;;;;12.43;10.38;;;;;;;12.17;58.70;94218.53;5071573;28;20024;-50
2021/10/06 09:14:35;;;;;;;11.88;9.48;;;;;;;12.20;59.41;94206.38;5070727;28;20040;-52
2021/10/06 09:17:11;;;;;;;15.07;10.75;;;;;;;12.11;58.76;94224.19;5069939;28;20051;-56
2021/10/06 09:19:43;;;;;;;16.15;11.18;;;;;;;11.90;59.10;94209.59;5070908;28;20020;-51
2021/10/06 09:22:34;;;;;;;17.30;10.10;;;;;;;12.50;58.16;94230.78;5071009;28;20049;-52
2021/10/06 09:25:06;;;;;;;16.83;11.70;;;;;;;12.92;57.24;94232.19;5069004;28;20131;-52
2021/10/06 09:27:37;;;;;;;16.95;12.80;;;;;;;13.49;55.63;94224.56;5071048;28;20024;-50
2021/10/06 09:30:13;;;;;;;17.15;11.25;;;;;;;13.93;54.25;94216.91;5071303;28;20036;-51
2021/10/06 09:32:44;;;;;;;39.03;25.38;;;;;;;14.44;53.29;94212.72;5069852;28;20419;-51
2021/10/06 09:35:30;;;;;;;12.20;9.40;;;;;;;14.96;50.50;94211.22;5070942;28;20116;-51
2021/10/06 09:37:57;;;;;;;13.35;7.15;;;;;;;16.01;46.85;94209.31;5070594;28;20040;-50
2021/10/06 09:40:26;;;;;;;8.02;7.20;;;;;;;16.74;45.63;94195.97;5071179;28;20035;-50
2021/10/06 09:42:54;;;;;;;11.13;9.88;;;;;;;16.30;46.11;94196.50;5070820;28;20117;-51
2021/10/06 09:45:21;;;;;;;10.75;8.90;;;;;;;17.07;45.06;94192.47;5071105;28;20040;-52
2021/10/06 09:48:09;;;;;;;9.48;7.93;;;;;;;17.33;44.13;94196.66;5071004;28;20028;-49
2021/10/06 09:50:43;;;;;;;8.70;7.53;;;;;;;17.73;43.68;94197.16;5071088;28;20063;-49
2021/10/06 09:53:15;;;;;;;9.43;8.07;;;;;;;17.33;43.87;94193.88;5069740;28;20108;-50
2021/10/06 09:55:43;;;;;;;9.88;7.78;;;;;;;17.89;42.38;94195.63;5070632;28;20111;-49
2021/10/06 09:58:10;;;;;;;8.68;7.63;;;;;;;18.45;41.86;94198.59;5070645;28;20078;-55
2021/10/06 10:00:36;;;;;;;9.25;7.22;;;;;;;18.32;41.54;94198.94;5070859;28;20033;-50
2021/10/06 10:03:03;;;;;;;10.45;8.40;;;;;;;18.30;41.01;94193.22;5070799;28;20400;-51
2021/10/06 10:05:30;;;;;;;10.85;8.88;;;;;;;18.70;40.49;94185.13;5070178;28;20024;-51
2021/10/06 10:07:56;;;;;;;9.80;7.90;;;;;;;18.24;41.50;94170.34;5069534;28;20029;-51
2021/10/06 10:10:22;;;;;;;8.85;7.53;;;;;;;19.59;39.67;94179.22;5070378;28;20031;-50
2021/10/06 10:12:48;;;;;;;11.70;9.00;;;;;;;18.72;40.22;94143.31;5070762;28;20099;-50
2021/10/06 10:15:16;;;;;;;9.15;8.00;;;;;;;19.56;38.34;94180.38;5070660;28;20076;-50
2021/10/06 10:17:41;;;;;;;11.05;8.98;;;;;;;19.12;38.69;94190.38;5070592;28;20020;-50
2021/10/06 10:20:10;;;;;;;12.10;10.68;;;;;;;19.89;37.73;94179.91;5068797;28;20119;-52
2021/10/06 10:22:40;;;;;;;11.60;10.48;;;;;;;19.66;38.71;94172.69;5069071;28;20083;-52
2021/10/06 10:25:17;;;;;;;10.93;8.27;;;;;;;20.25;36.77;94151.63;5068710;28;20028;-49
2021/10/06 10:28:01;;;;;;;11.93;8.85;;;;;;;21.14;35.05;94158.44;5070203;28;20033;-49
2021/10/06 10:30:28;;;;;;;10.80;9.10;;;;;;;21.07;34.73;94159.38;5070529;28;20036;-50
2021/10/06 10:32:54;;;;;;;9.80;8.25;;;;;;;20.69;36.14;94146.28;5070203;28;20503;-50
2021/10/06 10:35:31;;;;;;;10.45;9.35;;;;;;;19.28;37.75;94146.75;5068948;28;20063;-49
2021/10/06 10:38:00;;;;;;;12.30;10.25;;;;;;;19.24;37.63;94147.22;5070169;28;20047;-51
2021/10/06 10:40:32;;;;;;;12.02;10.38;;;;;;;19.98;37.09;94139.91;5070470;28;20040;-49
2021/10/06 10:43:00;;;;;;;13.82;12.35;;;;;;;20.37;36.66;94146.88;5070419;28;20042;-49
2021/10/06 10:45:44;;;;;;;11.77;9.30;;;;;;;;;;5070712;28;20400;-50
2021/10/06 10:48:12;;;;;;;9.50;8.50;;;;;;;21.32;34.42;94130.81;5070206;28;20454;-50
2021/10/06 10:50:41;;;;;;;14.35;11.05;;;;;;;21.23;34.69;94123.94;5070369;28;20047;-51
2021/10/06 10:53:07;;;;;;;12.48;10.15;;;;;;;20.08;36.07;94124.53;5070019;28;20470;-50
2021/10/06 10:55:47;;;;;;;18.80;11.68;;;;;;;19.78;37.71;94113.25;5069760;28;20025;-51
2021/10/06 10:58:31;;;;;;;12.60;10.23;;;;;;;19.84;36.73;94116.50;5069973;28;20025;-49
2021/10/06 11:00:57;;;;;;;13.23;10.30;;;;;;;19.04;38.61;94091.78;5070062;28;20119;-49
2021/10/06 11:03:23;;;;;;;17.52;11.13;;;;;;;19.30;38.65;94104.91;5070151;28;20028;-50
2021/10/06 11:05:49;;;;;;;13.95;11.18;;;;;;;18.88;38.73;94106.06;5068974;28;20535;-55
2021/10/06 11:08:29;;;;;;;15.88;11.02;;;;;;;19.74;39.11;94107.38;5069726;28;20532;-52
2021/10/06 11:11:09;;;;;;;13.38;11.70;;;;;;;20.01;37.26;94100.19;5070155;28;20389;-49
2021/10/06 11:13:39;;;;;;;16.50;12.40;;;;;;;20.40;36.27;94100.78;5069854;28;20428;-50
2021/10/06 11:16:05;;;;;;;12.35;11.18;;;;;;;21.05;36.79;94097.47;5070070;28;20511;-51
2021/10/06 11:19:03;;;;;;;14.65;11.68;;;;;;;20.42;36.15;94094.59;5069718;28;20037;-52
2021/10/06 11:21:37;;;;;;;12.98;11.27;;;;;;;20.08;36.42;94095.75;5046538;28;20056;-49
2021/10/06 11:24:21;;;;;;;13.85;11.30;;;;;;;20.46;35.69;94080.84;5069713;28;20025;-50
2021/10/06 11:26:56;;;;;;;15.60;12.23;;;;;;;19.55;37.24;94094.91;5070009;28;20051;-50